sensor_id;sensor_type;location;lat;lon;timestamp;pressure;altitude;pressure_sealevel;temperature;humidity
43298;BME280;28892;55.640;37.532;2023-02-21T00:01:55;96417.53;;;-8.04;57.07
43298;BME280;28892;55.640;37.532;2023-02-21T00:04:40;96417.94;;;-7.89;57.17
43298;BME280;28892;55.640;37.532;2023-02-21T00:07:25;96419.81;;;-7.91;57.28
43298;BME280;28892;55.640;37.532;2023-02-21T00:10:12;96409.81;;;-8.04;56.97
43298;BME280;28892;55.640;37.532;2023-02-21T00:12:57;96400.44;;;-8.15;57.11
43298;BME280;28892;55.640;37.532;2023-02-21T00:15:41;96398.38;;;-8.31;57.23
43298;BME280;28892;55.640;37.532;2023-02-21T00:18:25;96402.06;;;-8.34;57.49
43298;BME280;28892;55.640;37.532;2023-02-21T00:21:10;96401.94;;;-8.22;57.85
43298;BME280;28892;55.640;37.532;2023-02-21T00:23:54;96392.72;;;-8.15;57.79
43298;BME280;28892;55.640;37.532;2023-02-21T00:26:39;96395.72;;;-8.10;57.69
43298;BME280;28892;55.640;37.532;2023-02-21T00:29:23;96390.44;;;-8.18;57.72
43298;BME280;28892;55.640;37.532;2023-02-21T00:32:07;96388.94;;;-8.21;58.02
43298;BME280;28892;55.640;37.532;2023-02-21T00:34:51;96385.81;;;-8.24;58.08
43298;BME280;28892;55.640;37.532;2023-02-21T00:37:36;96382.47;;;-8.05;58.02
43298;BME280;28892;55.640;37.532;2023-02-21T00:40:20;96386.66;;;-8.04;58.20
43298;BME280;28892;55.640;37.532;2023-02-21T00:43:06;96376.22;;;-7.93;57.86
43298;BME280;28892;55.640;37.532;2023-02-21T00:45:50;96378.38;;;-8.08;57.97
43298;BME280;28892;55.640;37.532;2023-02-21T00:48:34;96384.06;;;-7.94;57.58
43298;BME280;28892;55.640;37.532;2023-02-21T00:51:18;96373.63;;;-8.03;57.37
43298;BME280;28892;55.640;37.532;2023-02-21T00:54:03;96362.13;;;-7.89;57.63
43298;BME280;28892;55.640;37.532;2023-02-21T00:56:47;96362.81;;;-7.87;57.27
43298;BME280;28892;55.640;37.532;2023-02-21T00:59:31;96348.47;;;-7.89;57.05
43298;BME280;28892;55.640;37.532;2023-02-21T01:02:15;96354.28;;;-7.97;56.65
43298;BME280;28892;55.640;37.532;2023-02-21T01:05:00;96357.28;;;-8.02;57.18
43298;BME280;28892;55.640;37.532;2023-02-21T01:07:44;96359.31;;;-8.05;56.93
43298;BME280;28892;55.640;37.532;2023-02-21T01:10:28;96354.53;;;-8.20;57.11
43298;BME280;28892;55.640;37.532;2023-02-21T01:13:12;96354.28;;;-8.36;57.45
43298;BME280;28892;55.640;37.532;2023-02-21T01:15:57;96347.22;;;-8.24;57.71
43298;BME280;28892;55.640;37.532;2023-02-21T01:18:41;96347.50;;;-8.28;57.36
43298;BME280;28892;55.640;37.532;2023-02-21T01:21:25;96348.03;;;-8.44;57.06
43298;BME280;28892;55.640;37.532;2023-02-21T01:24:12;96338.56;;;-8.43;57.60
43298;BME280;28892;55.640;37.532;2023-02-21T01:26:57;96336.56;;;-8.39;57.40
43298;BME280;28892;55.640;37.532;2023-02-21T01:29:42;96334.38;;;-8.44;57.47
43298;BME280;28892;55.640;37.532;2023-02-21T01:32:26;96336.81;;;-8.43;57.27
43298;BME280;28892;55.640;37.532;2023-02-21T01:35:11;96335.34;;;-8.45;57.44
43298;BME280;28892;55.640;37.532;2023-02-21T01:37:55;96327.22;;;-8.60;57.40
43298;BME280;28892;55.640;37.532;2023-02-21T01:40:40;96328.69;;;-8.58;57.42
43298;BME280;28892;55.640;37.532;2023-02-21T01:43:26;96331.25;;;-8.67;57.48
43298;BME280;28892;55.640;37.532;2023-02-21T01:46:15;96329.78;;;-8.60;57.48
43298;BME280;28892;55.640;37.532;2023-02-21T01:49:07;96327.75;;;-8.66;57.73
43298;BME280;28892;55.640;37.532;2023-02-21T01:51:53;96331.13;;;-8.66;57.79
43298;BME280;28892;55.640;37.532;2023-02-21T01:54:45;96327.47;;;-8.63;57.65
43298;BME280;28892;55.640;37.532;2023-02-21T01:57:31;96328.03;;;-8.60;57.80
43298;BME280;28892;55.640;37.532;2023-02-21T02:00:17;96322.38;;;-8.53;58.01
43298;BME280;28892;55.640;37.532;2023-02-21T02:03:04;96326.28;;;-8.59;57.74
43298;BME280;28892;55.640;37.532;2023-02-21T02:05:53;96317.63;;;-8.58;58.09
43298;BME280;28892;55.640;37.532;2023-02-21T02:08:39;96323.72;;;-8.59;58.39
43298;BME280;28892;55.640;37.532;2023-02-21T02:11:40;96328.97;;;-8.51;58.27
43298;BME280;28892;55.640;37.532;2023-02-21T02:14:35;96326.94;;;-8.57;58.31
43298;BME280;28892;55.640;37.532;2023-02-21T02:36:16;96322.06;;;-8.41;57.50
43298;BME280;28892;55.640;37.532;2023-02-21T02:44:52;96315.84;;;-8.67;57.58
43298;BME280;28892;55.640;37.532;2023-02-21T02:47:26;96323.16;;;-8.53;57.57
43298;BME280;28892;55.640;37.532;2023-02-21T02:49:54;96317.06;;;-8.72;57.22
43298;BME280;28892;55.640;37.532;2023-02-21T02:52:20;96311.66;;;-8.68;57.45
43298;BME280;28892;55.640;37.532;2023-02-21T02:55:00;96314.22;;;-8.68;57.27
43298;BME280;28892;55.640;37.532;2023-02-21T02:57:31;96311.63;;;-8.78;57.58
43298;BME280;28892;55.640;37.532;2023-02-21T03:00:07;96304.72;;;-8.78;57.51
43298;BME280;28892;55.640;37.532;2023-02-21T03:16:37;96313.16;;;-9.17;57.29
43298;BME280;28892;55.640;37.532;2023-02-21T03:19:16;96324.19;;;-9.26;57.58
43298;BME280;28892;55.640;37.532;2023-02-21T03:21:47;96330.41;;;-9.29;57.25
43298;BME280;28892;55.640;37.532;2023-02-21T03:24:17;96327.88;;;-9.19;57.40
43298;BME280;28892;55.640;37.532;2023-02-21T03:26:47;96328.66;;;-9.28;57.25
43298;BME280;28892;55.640;37.532;2023-02-21T03:29:35;96324.41;;;-9.39;57.02
43298;BME280;28892;55.640;37.532;2023-02-21T03:32:07;96314.31;;;-9.31;57.15
43298;BME280;28892;55.640;37.532;2023-02-21T03:34:41;96315.13;;;-9.30;57.25
43298;BME280;28892;55.640;37.532;2023-02-21T03:37:20;96313.53;;;-9.31;57.33
43298;BME280;28892;55.640;37.532;2023-02-21T03:39:46;96314.28;;;-9.41;57.17
43298;BME280;28892;55.640;37.532;2023-02-21T03:42:12;96311.25;;;-9.56;57.04
43298;BME280;28892;55.640;37.532;2023-02-21T03:44:39;96308.06;;;-9.38;57.26
43298;BME280;28892;55.640;37.532;2023-02-21T03:47:04;96306.31;;;-9.37;57.19
43298;BME280;28892;55.640;37.532;2023-02-21T03:49:30;96305.50;;;-9.38;57.55
43298;BME280;28892;55.640;37.532;2023-02-21T03:51:56;96306.41;;;-9.49;57.29
43298;BME280;28892;55.640;37.532;2023-02-21T03:54:22;96312.13;;;-9.35;57.16
43298;BME280;28892;55.640;37.532;2023-02-21T03:56:51;96304.00;;;-9.41;56.61
43298;BME280;28892;55.640;37.532;2023-02-21T03:59:24;96309.53;;;-9.45;56.47
43298;BME280;28892;55.640;37.532;2023-02-21T04:01:51;96305.81;;;-9.62;57.01
43298;BME280;28892;55.640;37.532;2023-02-21T04:04:17;96309.81;;;-9.70;56.88
43298;BME280;28892;55.640;37.532;2023-02-21T04:06:47;96305.50;;;-9.69;56.83
43298;BME280;28892;55.640;37.532;2023-02-21T04:09:13;96308.97;;;-9.70;56.96
43298;BME280;28892;55.640;37.532;2023-02-21T04:11:44;96297.94;;;-9.71;57.29
43298;BME280;28892;55.640;37.532;2023-02-21T04:14:12;96300.13;;;-9.66;56.86
43298;BME280;28892;55.640;37.532;2023-02-21T04:16:39;96302.06;;;-9.79;56.83
43298;BME280;28892;55.640;37.532;2023-02-21T04:19:06;96287.66;;;-9.92;57.12
43298;BME280;28892;55.640;37.532;2023-02-21T04:21:32;96292.44;;;-9.87;57.05
43298;BME280;28892;55.640;37.532;2023-02-21T04:23:59;96293.38;;;-10.10;57.18
43298;BME280;28892;55.640;37.532;2023-02-21T04:26:29;96299.25;;;-9.98;57.43
43298;BME280;28892;55.640;37.532;2023-02-21T04:28:55;96298.50;;;-9.88;57.28
43298;BME280;28892;55.640;37.532;2023-02-21T04:31:22;96316.63;;;-9.80;56.84
43298;BME280;28892;55.640;37.532;2023-02-21T04:33:49;96313.81;;;-9.77;56.81
43298;BME280;28892;55.640;37.532;2023-02-21T04:36:21;96310.97;;;-10.05;56.50
43298;BME280;28892;55.640;37.532;2023-02-21T04:38:47;96312.78;;;-9.96;56.85
43298;BME280;28892;55.640;37.532;2023-02-21T04:41:15;96307.97;;;-9.89;56.78
43298;BME280;28892;55.640;37.532;2023-02-21T04:43:44;96306.41;;;-10.01;56.76
43298;BME280;28892;55.640;37.532;2023-02-21T04:46:12;96322.97;;;-9.84;56.46
43298;BME280;28892;55.640;37.532;2023-02-21T04:48:45;96314.47;;;-10.06;56.17
43298;BME280;28892;55.640;37.532;2023-02-21T04:51:12;96313.22;;;-10.12;56.29
43298;BME280;28892;55.640;37.532;2023-02-21T04:53:38;96321.91;;;-10.03;56.78
43298;BME280;28892;55.640;37.532;2023-02-21T04:56:07;96332.72;;;-9.78;56.08
43298;BME280;28892;55.640;37.532;2023-02-21T04:58:33;96317.19;;;-9.98;55.80
43298;BME280;28892;55.640;37.532;2023-02-21T05:00:59;96318.22;;;-9.89;55.79
43298;BME280;28892;55.640;37.532;2023-02-21T05:03:25;96333.41;;;-9.97;55.79
43298;BME280;28892;55.640;37.532;2023-02-21T05:05:51;96327.59;;;-9.99;55.94
43298;BME280;28892;55.640;37.532;2023-02-21T05:08:16;96328.53;;;-10.00;55.78
43298;BME280;28892;55.640;37.532;2023-02-21T05:10:42;96319.91;;;-9.99;56.11
43298;BME280;28892;55.640;37.532;2023-02-21T05:13:08;96310.88;;;-10.15;55.87
43298;BME280;28892;55.640;37.532;2023-02-21T05:15:34;96320.53;;;-10.07;55.79
43298;BME280;28892;55.640;37.532;2023-02-21T05:18:00;96324.16;;;-10.10;55.73
43298;BME280;28892;55.640;37.532;2023-02-21T05:20:25;96331.78;;;-9.98;55.44
43298;BME280;28892;55.640;37.532;2023-02-21T05:22:51;96336.81;;;-9.97;55.40
43298;BME280;28892;55.640;37.532;2023-02-21T05:25:19;96331.91;;;-10.00;55.14
43298;BME280;28892;55.640;37.532;2023-02-21T05:28:05;96338.84;;;-10.12;55.71
43298;BME280;28892;55.640;37.532;2023-02-21T05:30:31;96326.88;;;-10.22;55.94
43298;BME280;28892;55.640;37.532;2023-02-21T05:32:57;96338.47;;;-10.07;55.56
43298;BME280;28892;55.640;37.532;2023-02-21T05:35:28;96338.97;;;-10.13;55.90
43298;BME280;28892;55.640;37.532;2023-02-21T05:37:57;96320.81;;;-10.21;55.67
43298;BME280;28892;55.640;37.532;2023-02-21T05:40:23;96333.78;;;-10.23;55.21
43298;BME280;28892;55.640;37.532;2023-02-21T05:42:49;96329.06;;;-10.18;55.73
43298;BME280;28892;55.640;37.532;2023-02-21T05:45:14;96335.56;;;-10.14;55.70
43298;BME280;28892;55.640;37.532;2023-02-21T05:47:40;96326.47;;;-10.06;55.62
43298;BME280;28892;55.640;37.532;2023-02-21T05:50:06;96339.78;;;-10.13;55.28
43298;BME280;28892;55.640;37.532;2023-02-21T05:52:32;96341.22;;;-10.20;55.49
43298;BME280;28892;55.640;37.532;2023-02-21T05:54:57;96336.66;;;-10.16;55.55
43298;BME280;28892;55.640;37.532;2023-02-21T05:57:24;96329.56;;;-10.24;55.34
43298;BME280;28892;55.640;37.532;2023-02-21T05:59:49;96338.28;;;-10.15;55.76
43298;BME280;28892;55.640;37.532;2023-02-21T06:02:15;96314.38;;;-10.37;55.11
43298;BME280;28892;55.640;37.532;2023-02-21T06:04:41;96329.56;;;-10.24;55.41
43298;BME280;28892;55.640;37.532;2023-02-21T06:07:07;96323.09;;;-10.07;55.25
43298;BME280;28892;55.640;37.532;2023-02-21T06:09:33;96336.28;;;-9.90;54.83
43298;BME280;28892;55.640;37.532;2023-02-21T06:11:59;96332.28;;;-9.83;54.99
43298;BME280;28892;55.640;37.532;2023-02-21T06:14:24;96328.97;;;-9.74;54.29
43298;BME280;28892;55.640;37.532;2023-02-21T06:16:51;96337.28;;;-9.82;54.26
43298;BME280;28892;55.640;37.532;2023-02-21T06:19:17;96336.38;;;-9.49;53.98
43298;BME280;28892;55.640;37.532;2023-02-21T06:21:44;96336.72;;;-9.43;53.60
43298;BME280;28892;55.640;37.532;2023-02-21T06:24:11;96340.84;;;-9.51;53.41
43298;BME280;28892;55.640;37.532;2023-02-21T06:26:37;96339.81;;;-9.39;53.80
43298;BME280;28892;55.640;37.532;2023-02-21T06:29:04;96348.06;;;-9.35;53.28
43298;BME280;28892;55.640;37.532;2023-02-21T06:31:33;96334.00;;;-9.41;53.16
43298;BME280;28892;55.640;37.532;2023-02-21T06:34:00;96329.78;;;-9.21;53.17
43298;BME280;28892;55.640;37.532;2023-02-21T06:36:27;96332.38;;;-9.42;52.79
43298;BME280;28892;55.640;37.532;2023-02-21T06:38:54;96341.97;;;-9.44;53.30
43298;BME280;28892;55.640;37.532;2023-02-21T06:41:23;96338.56;;;-9.14;53.44
43298;BME280;28892;55.640;37.532;2023-02-21T06:43:51;96329.63;;;-9.19;52.64
43298;BME280;28892;55.640;37.532;2023-02-21T06:46:19;96336.66;;;-9.21;52.87
43298;BME280;28892;55.640;37.532;2023-02-21T06:48:46;96325.72;;;-9.14;52.55
43298;BME280;28892;55.640;37.532;2023-02-21T06:51:12;96343.44;;;-9.10;52.97
43298;BME280;28892;55.640;37.532;2023-02-21T06:53:42;96325.66;;;-9.33;52.60
43298;BME280;28892;55.640;37.532;2023-02-21T06:56:09;96337.38;;;-9.09;52.98
43298;BME280;28892;55.640;37.532;2023-02-21T06:58:35;96348.44;;;-9.19;52.90
43298;BME280;28892;55.640;37.532;2023-02-21T07:01:10;96347.59;;;-9.19;52.88
43298;BME280;28892;55.640;37.532;2023-02-21T07:03:40;96334.81;;;-9.09;52.76
43298;BME280;28892;55.640;37.532;2023-02-21T07:06:07;96339.59;;;-8.95;52.11
43298;BME280;28892;55.640;37.532;2023-02-21T07:08:33;96350.41;;;-8.91;52.50
43298;BME280;28892;55.640;37.532;2023-02-21T07:10:59;96342.72;;;-8.91;52.26
43298;BME280;28892;55.640;37.532;2023-02-21T07:13:25;96336.91;;;-8.74;51.91
43298;BME280;28892;55.640;37.532;2023-02-21T07:15:51;96337.03;;;-8.85;52.62
43298;BME280;28892;55.640;37.532;2023-02-21T07:18:16;96345.94;;;-8.99;52.68
43298;BME280;28892;55.640;37.532;2023-02-21T07:20:42;96341.97;;;-9.03;52.88
43298;BME280;28892;55.640;37.532;2023-02-21T07:23:09;96353.28;;;-8.85;52.47
43298;BME280;28892;55.640;37.532;2023-02-21T07:25:34;96353.28;;;-8.85;52.28
43298;BME280;28892;55.640;37.532;2023-02-21T07:28:00;96356.84;;;-8.56;52.16
43298;BME280;28892;55.640;37.532;2023-02-21T07:30:32;96348.75;;;-8.51;51.92
43298;BME280;28892;55.640;37.532;2023-02-21T07:32:59;96349.09;;;-8.46;51.96
43298;BME280;28892;55.640;37.532;2023-02-21T07:35:25;96357.13;;;-8.30;51.38
43298;BME280;28892;55.640;37.532;2023-02-21T07:37:51;96368.75;;;-8.35;51.12
43298;BME280;28892;55.640;37.532;2023-02-21T07:40:17;96365.13;;;-8.23;51.58
43298;BME280;28892;55.640;37.532;2023-02-21T07:42:42;96356.19;;;-8.09;50.67
43298;BME280;28892;55.640;37.532;2023-02-21T07:45:11;96357.53;;;-8.05;49.50
43298;BME280;28892;55.640;37.532;2023-02-21T07:47:38;96366.75;;;-8.32;49.95
43298;BME280;28892;55.640;37.532;2023-02-21T07:50:04;96366.88;;;-8.23;49.66
43298;BME280;28892;55.640;37.532;2023-02-21T07:52:33;96357.94;;;-8.09;50.10
43298;BME280;28892;55.640;37.532;2023-02-21T07:55:05;96363.09;;;-8.19;49.28
43298;BME280;28892;55.640;37.532;2023-02-21T07:57:31;96359.41;;;-8.27;49.29
43298;BME280;28892;55.640;37.532;2023-02-21T07:59:57;96365.94;;;-8.22;49.85
43298;BME280;28892;55.640;37.532;2023-02-21T08:02:23;96361.31;;;-8.29;49.18
43298;BME280;28892;55.640;37.532;2023-02-21T08:04:50;96351.72;;;-8.27;49.14
43298;BME280;28892;55.640;37.532;2023-02-21T08:07:16;96363.06;;;-8.39;49.15
43298;BME280;28892;55.640;37.532;2023-02-21T08:09:42;96366.47;;;-8.19;49.66
43298;BME280;28892;55.640;37.532;2023-02-21T08:12:12;96362.28;;;-8.10;49.80
43298;BME280;28892;55.640;37.532;2023-02-21T08:14:38;96364.97;;;-7.92;49.29
43298;BME280;28892;55.640;37.532;2023-02-21T08:17:04;96363.88;;;-7.60;50.34
43298;BME280;28892;55.640;37.532;2023-02-21T08:19:29;96358.59;;;-7.68;47.91
43298;BME280;28892;55.640;37.532;2023-02-21T08:21:55;96367.22;;;-7.49;48.80
43298;BME280;28892;55.640;37.532;2023-02-21T08:24:21;96358.94;;;-7.43;48.04
43298;BME280;28892;55.640;37.532;2023-02-21T08:26:47;96355.00;;;-7.37;48.33
43298;BME280;28892;55.640;37.532;2023-02-21T08:29:14;96353.44;;;-7.68;47.55
43298;BME280;28892;55.640;37.532;2023-02-21T08:31:45;96372.66;;;-7.62;48.52
43298;BME280;28892;55.640;37.532;2023-02-21T08:34:11;96381.81;;;-7.30;48.29
43298;BME280;28892;55.640;37.532;2023-02-21T08:36:40;96373.00;;;-6.90;47.76
43298;BME280;28892;55.640;37.532;2023-02-21T08:39:07;96367.28;;;-5.38;46.52
43298;BME280;28892;55.640;37.532;2023-02-21T08:41:38;96348.22;;;-4.16;41.98
43298;BME280;28892;55.640;37.532;2023-02-21T08:44:11;96357.47;;;-3.89;41.67
43298;BME280;28892;55.640;37.532;2023-02-21T08:46:40;96371.31;;;-3.15;41.74
43298;BME280;28892;55.640;37.532;2023-02-21T08:49:12;96353.34;;;-2.05;39.89
43298;BME280;28892;55.640;37.532;2023-02-21T08:51:39;96367.38;;;-0.85;38.83
43298;BME280;28892;55.640;37.532;2023-02-21T08:54:05;96344.31;;;-0.88;36.94
43298;BME280;28892;55.640;37.532;2023-02-21T08:56:32;96366.22;;;-0.82;37.12
43298;BME280;28892;55.640;37.532;2023-02-21T08:59:01;96357.59;;;-0.82;36.54
43298;BME280;28892;55.640;37.532;2023-02-21T09:01:35;96373.47;;;-0.47;36.86
43298;BME280;28892;55.640;37.532;2023-02-21T09:04:05;96357.88;;;-0.77;34.91
43298;BME280;28892;55.640;37.532;2023-02-21T09:06:36;96378.16;;;-0.58;35.70
43298;BME280;28892;55.640;37.532;2023-02-21T09:09:02;96363.88;;;-0.77;36.03
43298;BME280;28892;55.640;37.532;2023-02-21T09:11:31;96380.69;;;-0.79;35.73
43298;BME280;28892;55.640;37.532;2023-02-21T09:13:57;96379.09;;;-0.44;35.68
43298;BME280;28892;55.640;37.532;2023-02-21T09:16:26;96368.06;;;-0.09;34.38
43298;BME280;28892;55.640;37.532;2023-02-21T09:18:54;96370.13;;;-0.04;35.78
43298;BME280;28892;55.640;37.532;2023-02-21T09:21:21;96380.59;;;-0.19;36.16
43298;BME280;28892;55.640;37.532;2023-02-21T09:23:51;96379.16;;;-0.22;36.93
43298;BME280;28892;55.640;37.532;2023-02-21T09:26:17;96383.09;;;-0.11;36.36
43298;BME280;28892;55.640;37.532;2023-02-21T09:28:43;96378.19;;;-0.21;36.02
43298;BME280;28892;55.640;37.532;2023-02-21T09:31:09;96372.47;;;-0.46;35.71
43298;BME280;28892;55.640;37.532;2023-02-21T09:33:38;96363.63;;;-0.82;36.20
43298;BME280;28892;55.640;37.532;2023-02-21T09:36:07;96380.81;;;-1.11;37.35
43298;BME280;28892;55.640;37.532;2023-02-21T09:38:33;96380.09;;;-0.60;37.71
43298;BME280;28892;55.640;37.532;2023-02-21T09:41:05;96382.38;;;-0.72;36.71
43298;BME280;28892;55.640;37.532;2023-02-21T09:43:38;96380.75;;;-1.03;37.83
43298;BME280;28892;55.640;37.532;2023-02-21T09:48:53;96378.84;;;-2.41;37.86
43298;BME280;28892;55.640;37.532;2023-02-21T09:51:18;96369.25;;;-2.32;38.07
43298;BME280;28892;55.640;37.532;2023-02-21T09:53:46;96370.94;;;-3.04;38.55
43298;BME280;28892;55.640;37.532;2023-02-21T09:56:35;96382.75;;;-2.45;38.09
43298;BME280;28892;55.640;37.532;2023-02-21T09:59:09;96380.31;;;-2.46;38.47
43298;BME280;28892;55.640;37.532;2023-02-21T10:10:48;96393.53;;;-0.26;36.48
43298;BME280;28892;55.640;37.532;2023-02-21T10:13:38;96387.38;;;-0.03;37.46
43298;BME280;28892;55.640;37.532;2023-02-21T10:16:20;96391.25;;;-0.51;37.13
43298;BME280;28892;55.640;37.532;2023-02-21T10:19:13;96400.50;;;-1.32;40.34
43298;BME280;28892;55.640;37.532;2023-02-21T10:21:43;96393.59;;;-2.09;38.59
43298;BME280;28892;55.640;37.532;2023-02-21T10:24:16;96400.50;;;-1.93;39.33
43298;BME280;28892;55.640;37.532;2023-02-21T10:26:58;96402.56;;;-2.44;39.21
43298;BME280;28892;55.640;37.532;2023-02-21T10:32:16;96398.00;;;-1.40;38.04
43298;BME280;28892;55.640;37.532;2023-02-21T10:35:01;96404.06;;;-0.49;38.36
43298;BME280;28892;55.640;37.532;2023-02-21T10:41:18;96401.34;;;0.76;34.72
43298;BME280;28892;55.640;37.532;2023-02-21T10:44:30;96403.03;;;0.40;34.80
43298;BME280;28892;55.640;37.532;2023-02-21T10:47:13;96399.53;;;0.77;34.88
43298;BME280;28892;55.640;37.532;2023-02-21T10:50:16;96424.28;;;0.59;35.13
43298;BME280;28892;55.640;37.532;2023-02-21T10:53:33;96422.06;;;0.34;35.37
43298;BME280;28892;55.640;37.532;2023-02-21T10:59:40;96419.00;;;1.03;35.02
43298;BME280;28892;55.640;37.532;2023-02-21T11:02:32;96420.94;;;1.22;33.72
43298;BME280;28892;55.640;37.532;2023-02-21T11:05:29;96429.22;;;1.68;33.73
43298;BME280;28892;55.640;37.532;2023-02-21T11:08:02;96440.31;;;1.42;34.08
43298;BME280;28892;55.640;37.532;2023-02-21T11:11:02;96442.09;;;-1.08;35.75
43298;BME280;28892;55.640;37.532;2023-02-21T11:13:29;96440.56;;;-1.18;36.84
43298;BME280;28892;55.640;37.532;2023-02-21T11:16:21;96442.13;;;0.19;37.42
43298;BME280;28892;55.640;37.532;2023-02-21T11:19:05;96431.94;;;0.61;34.60
43298;BME280;28892;55.640;37.532;2023-02-21T11:21:55;96442.97;;;0.63;35.01
43298;BME280;28892;55.640;37.532;2023-02-21T11:25:28;96435.78;;;1.57;35.93
43298;BME280;28892;55.640;37.532;2023-02-21T11:28:19;96432.72;;;1.47;34.85
43298;BME280;28892;55.640;37.532;2023-02-21T11:31:28;96442.78;;;0.43;35.27
43298;BME280;28892;55.640;37.532;2023-02-21T11:34:28;96448.88;;;0.50;34.53
43298;BME280;28892;55.640;37.532;2023-02-21T11:37:03;96458.31;;;1.01;35.06
43298;BME280;28892;55.640;37.532;2023-02-21T11:39:36;96453.88;;;1.23;34.76
43298;BME280;28892;55.640;37.532;2023-02-21T11:42:29;96458.56;;;1.70;34.50
43298;BME280;28892;55.640;37.532;2023-02-21T11:45:29;96457.75;;;1.06;34.19
43298;BME280;28892;55.640;37.532;2023-02-21T11:48:02;96473.66;;;0.02;34.81
43298;BME280;28892;55.640;37.532;2023-02-21T11:50:33;96461.03;;;-1.00;35.06
43298;BME280;28892;55.640;37.532;2023-02-21T11:53:28;96471.66;;;-1.71;38.30
43298;BME280;28892;55.640;37.532;2023-02-21T12:04:50;96478.63;;;-0.63;36.21
43298;BME280;28892;55.640;37.532;2023-02-21T12:10:58;96497.03;;;-0.05;35.50
43298;BME280;28892;55.640;37.532;2023-02-21T12:28:08;96516.91;;;-1.57;37.08
43298;BME280;28892;55.640;37.532;2023-02-21T12:33:38;96520.34;;;-2.45;37.90
43298;BME280;28892;55.640;37.532;2023-02-21T12:38:52;96527.16;;;-2.44;37.65
43298;BME280;28892;55.640;37.532;2023-02-21T12:41:37;96516.97;;;-2.54;38.23
43298;BME280;28892;55.640;37.532;2023-02-21T12:46:53;96540.00;;;-2.67;38.87
43298;BME280;28892;55.640;37.532;2023-02-21T12:49:26;96544.06;;;-2.56;38.59
43298;BME280;28892;55.640;37.532;2023-02-21T12:52:01;96549.94;;;-3.12;39.02
43298;BME280;28892;55.640;37.532;2023-02-21T12:54:46;96539.38;;;-3.11;39.39
43298;BME280;28892;55.640;37.532;2023-02-21T12:57:18;96562.38;;;-2.99;39.47
43298;BME280;28892;55.640;37.532;2023-02-21T13:03:02;96566.56;;;-3.91;40.62
43298;BME280;28892;55.640;37.532;2023-02-21T13:05:43;96562.81;;;-4.05;40.79
43298;BME280;28892;55.640;37.532;2023-02-21T13:14:17;96566.50;;;-4.08;42.06
43298;BME280;28892;55.640;37.532;2023-02-21T13:16:45;96586.81;;;-3.95;42.47
43298;BME280;28892;55.640;37.532;2023-02-21T13:19:12;96588.19;;;-3.66;42.71
43298;BME280;28892;55.640;37.532;2023-02-21T13:27:30;96597.16;;;-3.52;41.66
43298;BME280;28892;55.640;37.532;2023-02-21T13:32:55;96584.72;;;-3.83;41.95
43298;BME280;28892;55.640;37.532;2023-02-21T13:35:48;96600.66;;;-3.69;42.09
43298;BME280;28892;55.640;37.532;2023-02-21T13:38:19;96608.22;;;-3.84;41.54
43298;BME280;28892;55.640;37.532;2023-02-21T13:41:02;96608.22;;;-3.84;41.24
43298;BME280;28892;55.640;37.532;2023-02-21T13:43:32;96610.22;;;-4.31;41.08
43298;BME280;28892;55.640;37.532;2023-02-21T13:46:24;96631.72;;;-4.57;42.49
43298;BME280;28892;55.640;37.532;2023-02-21T14:08:25;96681.22;;;-6.67;44.33
43298;BME280;28892;55.640;37.532;2023-02-21T14:10:55;96667.91;;;-6.63;44.95
43298;BME280;28892;55.640;37.532;2023-02-21T14:13:30;96683.94;;;-6.59;44.62
43298;BME280;28892;55.640;37.532;2023-02-21T14:16:35;96688.81;;;-6.56;44.55
43298;BME280;28892;55.640;37.532;2023-02-21T14:19:10;96702.91;;;-7.09;45.30
43298;BME280;28892;55.640;37.532;2023-02-21T14:22:29;96699.81;;;-6.93;45.30
43298;BME280;28892;55.640;37.532;2023-02-21T14:25:18;96705.41;;;-7.39;45.82
43298;BME280;28892;55.640;37.532;2023-02-21T14:27:48;96696.94;;;-7.61;45.92
43298;BME280;28892;55.640;37.532;2023-02-21T14:30:26;96716.09;;;-7.44;45.92
43298;BME280;28892;55.640;37.532;2023-02-21T14:33:20;96718.84;;;-7.35;46.06
43298;BME280;28892;55.640;37.532;2023-02-21T14:36:03;96713.00;;;-7.37;46.35
43298;BME280;28892;55.640;37.532;2023-02-21T14:38:36;96721.44;;;-7.35;46.20
43298;BME280;28892;55.640;37.532;2023-02-21T15:04:02;96772.38;;;-7.70;46.94
43298;BME280;28892;55.640;37.532;2023-02-21T15:06:33;96774.16;;;-8.24;47.55
43298;BME280;28892;55.640;37.532;2023-02-21T15:09:17;96773.94;;;-8.00;47.49
43298;BME280;28892;55.640;37.532;2023-02-21T15:11:44;96788.63;;;-8.12;47.83
43298;BME280;28892;55.640;37.532;2023-02-21T15:14:24;96797.66;;;-7.96;47.70
43298;BME280;28892;55.640;37.532;2023-02-21T15:16:54;96798.03;;;-8.01;48.05
43298;BME280;28892;55.640;37.532;2023-02-21T15:22:25;96815.56;;;-7.95;47.80
43298;BME280;28892;55.640;37.532;2023-02-21T15:27:37;96822.19;;;-8.14;48.17
43298;BME280;28892;55.640;37.532;2023-02-21T15:30:34;96808.16;;;-8.42;49.00
43298;BME280;28892;55.640;37.532;2023-02-21T15:33:11;96820.16;;;-8.31;48.89
43298;BME280;28892;55.640;37.532;2023-02-21T15:35:50;96826.50;;;-8.14;48.75
43298;BME280;28892;55.640;37.532;2023-02-21T15:38:32;96831.97;;;-8.07;48.61
43298;BME280;28892;55.640;37.532;2023-02-21T15:41:23;96836.22;;;-8.06;48.45
43298;BME280;28892;55.640;37.532;2023-02-21T15:44:12;96849.63;;;-8.03;48.57
43298;BME280;28892;55.640;37.532;2023-02-21T15:46:50;96853.81;;;-7.90;48.09
43298;BME280;28892;55.640;37.532;2023-02-21T15:49:21;96849.63;;;-8.03;48.29
43298;BME280;28892;55.640;37.532;2023-02-21T15:51:51;96847.03;;;-8.03;48.47
43298;BME280;28892;55.640;37.532;2023-02-21T15:54:39;96842.72;;;-8.23;49.05
43298;BME280;28892;55.640;37.532;2023-02-21T15:59:47;96865.72;;;-8.22;49.02
43298;BME280;28892;55.640;37.532;2023-02-21T16:02:20;96875.97;;;-8.43;49.58
43298;BME280;28892;55.640;37.532;2023-02-21T16:04:49;96872.03;;;-8.59;49.91
43298;BME280;28892;55.640;37.532;2023-02-21T16:07:32;96889.97;;;-8.47;50.44
43298;BME280;28892;55.640;37.532;2023-02-21T16:10:08;96882.97;;;-8.45;50.18
43298;BME280;28892;55.640;37.532;2023-02-21T16:12:38;96889.88;;;-8.46;50.37
43298;BME280;28892;55.640;37.532;2023-02-21T16:15:22;96891.22;;;-8.30;49.63